Time;durP1;ratioP1;P1;durP2;ratioP2;P2;SDS_P1;SDS_P2;PMS_P1;PMS_P2;Temp;Humidity;BMP_temperature;BMP_pressure;BME280_temperature;BME280_humidity;BME280_pressure;Samples;Min_cycle;Max_cycle;Signal;HPM_P1;HPM_P2
2022/12/30 00:00:11;;;;;;;;;5.33;3.00;;;;;8.99;100.00;100817.09;5016746;28;45891;-71
2022/12/30 00:02:37;;;;;;;;;6.33;5.00;;;;;9.00;100.00;100832.47;5023768;28;45569;-72
2022/12/30 00:05:03;;;;;;;;;6.00;4.00;;;;;8.96;100.00;100817.50;5017071;28;44786;-72
2022/12/30 00:07:28;;;;;;;;;8.67;5.67;;;;;8.96;100.00;100822.13;4993640;28;45531;-71
2022/12/30 00:09:54;;;;;;;;;2.00;2.00;;;;;8.95;100.00;100813.09;4998130;28;45339;-71
2022/12/30 00:34:25;;;;;;;;;5.00;3.00;;;;;8.57;100.00;100787.91;5005384;28;45639;-71
2022/12/30 00:36:51;;;;;;;;;4.67;3.00;;;;;8.53;100.00;100795.63;5010476;28;45743;-72
2022/12/30 00:39:16;;;;;;;;;6.67;2.67;;;;;8.51;100.00;100799.63;5008299;28;45819;-71
2022/12/30 00:44:26;;;;;;;;;4.67;3.33;;;;;8.36;100.00;100777.78;5006784;28;45403;-71
2022/12/30 00:46:52;;;;;;;;;4.33;3.67;;;;;8.41;100.00;100794.41;5005337;28;45878;-71
2022/12/30 00:57:30;;;;;;;;;6.33;4.00;;;;;8.29;100.00;100789.47;5005808;28;45506;-71
2022/12/30 00:59:56;;;;;;;;;4.00;3.00;;;;;8.23;100.00;100787.50;5001622;28;45283;-72
2022/12/30 01:02:22;;;;;;;;;5.00;2.00;;;;;8.28;100.00;100782.31;5002060;28;45681;-70
2022/12/30 01:04:47;;;;;;;;;4.00;4.00;;;;;8.27;100.00;100783.34;5003208;28;45628;-71
2022/12/30 01:07:13;;;;;;;;;3.00;3.00;;;;;8.23;100.00;100783.91;5000883;28;45858;-70
2022/12/30 01:09:38;;;;;;;;;6.33;4.00;;;;;8.22;100.00;100785.81;5000864;28;45765;-72
2022/12/30 01:12:08;;;;;;;;;4.00;2.00;;;;;8.20;100.00;100776.09;4998336;28;46137;-71
2022/12/30 01:14:40;;;;;;;;;2.67;2.67;;;;;8.20;100.00;100774.22;5004317;28;45711;-71
2022/12/30 01:17:07;;;;;;;;;5.00;3.00;;;;;8.21;100.00;100775.91;5013110;28;45642;-71
2022/12/30 01:19:33;;;;;;;;;4.00;2.00;;;;;8.20;100.00;100776.94;4999933;28;45752;-72
2022/12/30 01:21:58;;;;;;;;;3.00;3.00;;;;;8.18;100.00;100776.31;5005057;28;45863;-71
2022/12/30 01:24:24;;;;;;;;;4.00;3.00;;;;;8.17;100.00;100766.41;5005291;28;45472;-72
2022/12/30 01:26:49;;;;;;;;;5.33;4.33;;;;;8.13;100.00;100757.75;4998174;28;45350;-71
2022/12/30 01:29:37;;;;;;;;;5.00;1.00;;;;;8.15;100.00;100752.09;4989241;28;45826;-72
2022/12/30 01:32:07;;;;;;;;;1.67;1.67;;;;;8.13;100.00;100749.56;5014240;28;45709;-70
2022/12/30 01:34:34;;;;;;;;;1.67;1.33;;;;;8.16;100.00;100753.81;4996972;28;45656;-70
2022/12/30 01:37:00;;;;;;;;;6.00;2.67;;;;;8.14;100.00;100755.88;4999368;28;45659;-71
2022/12/30 01:39:25;;;;;;;;;2.00;2.00;;;;;8.05;100.00;100746.09;5003165;28;45386;-70
2022/12/30 01:41:54;;;;;;;;;2.00;2.00;;;;;8.06;100.00;100745.06;4995326;28;45756;-71
2022/12/30 01:44:59;;;;;;;;;5.00;3.00;;;;;8.12;100.00;100753.31;4995537;28;45376;-75
2022/12/30 01:47:47;;;;;;;;;5.67;3.67;;;;;8.13;100.00;100757.75;4983107;28;45421;-72
2022/12/30 01:50:23;;;;;;;;;3.00;2.00;;;;;8.12;100.00;100764.25;5009023;28;45765;-72
2022/12/30 01:52:57;;;;;;;;;5.67;3.67;;;;;8.10;100.00;100757.31;5003506;28;47382;-72
2022/12/30 01:55:32;;;;;;;;;3.33;2.00;;;;;8.12;100.00;100749.75;5009685;28;45364;-71
2022/12/30 01:58:00;;;;;;;;;3.33;2.00;;;;;8.10;100.00;100751.84;5004877;28;45711;-70
2022/12/30 02:00:26;;;;;;;;;3.00;1.33;;;;;8.10;100.00;100754.59;5001116;28;45859;-72
2022/12/30 02:02:54;;;;;;;;;4.00;1.67;;;;;8.11;100.00;100754.38;5011947;28;45736;-70
2022/12/30 02:05:23;;;;;;;;;2.33;2.33;;;;;8.11;100.00;100745.31;5015734;28;45672;-71
2022/12/30 02:07:59;;;;;;;;;3.67;2.67;;;;;8.09;100.00;100752.88;4996814;28;45652;-71
2022/12/30 02:10:25;;;;;;;;;5.33;3.33;;;;;8.07;100.00;100758.53;5008085;28;45357;-70
2022/12/30 02:12:51;;;;;;;;;2.67;1.00;;;;;8.06;100.00;100753.25;4997486;28;46500;-72
2022/12/30 02:15:17;;;;;;;;;3.00;1.67;;;;;7.97;100.00;100732.56;5002066;28;45697;-70
2022/12/30 02:17:53;;;;;;;;;4.00;4.00;;;;;8.05;100.00;100760.59;5001531;28;45296;-71
2022/12/30 02:20:34;;;;;;;;;2.33;2.00;;;;;8.02;100.00;100757.41;5002890;28;45673;-72
2022/12/30 02:23:32;;;;;;;;;1.67;1.67;;;;;7.99;100.00;100749.59;5012562;28;45516;-71
2022/12/30 02:26:00;;;;;;;;;3.33;2.00;;;;;7.94;100.00;100748.28;5004379;28;45642;-71
2022/12/30 02:28:53;;;;;;;;;5.33;4.33;;;;;7.91;100.00;100751.41;5010957;28;45844;-72
2022/12/30 02:31:29;;;;;;;;;6.00;3.00;;;;;7.88;100.00;100743.59;5012120;28;45479;-72
2022/12/30 02:34:13;;;;;;;;;2.00;2.00;;;;;7.85;100.00;100746.72;5008763;28;45639;-71
2022/12/30 02:36:43;;;;;;;;;4.00;3.67;;;;;7.85;100.00;100737.69;4998689;28;45731;-72
2022/12/30 02:39:35;;;;;;;;;3.00;3.00;;;;;7.82;100.00;100730.72;5004272;28;45715;-74
2022/12/30 02:45:19;;;;;;;;;5.33;4.00;;;;;7.83;100.00;100737.88;4996074;28;45405;-72
2022/12/30 02:48:06;;;;;;;;;3.33;3.33;;;;;7.87;100.00;100732.88;5002731;28;45578;-70
2022/12/30 02:53:24;;;;;;;;;7.00;4.67;;;;;7.98;100.00;100723.31;5004304;28;45322;-72
2022/12/30 02:55:51;;;;;;;;;4.00;3.67;;;;;7.99;100.00;100727.75;5009930;28;46457;-71
2022/12/30 02:58:16;;;;;;;;;5.67;3.67;;;;;8.04;100.00;100720.69;5012057;28;45871;-72
2022/12/30 03:04:03;;;;;;;;;5.33;4.00;;;;;8.22;100.00;100712.06;5004415;28;45247;-71
2022/12/30 03:07:01;;;;;;;;;6.00;4.33;;;;;8.26;100.00;100716.09;4993430;28;45424;-71
2022/12/30 03:11:12;;;;;;;;;4.00;4.00;;;;;8.27;100.00;100695.91;4982084;28;45764;-71
2022/12/30 03:12:39;;;;;;;;;7.00;5.00;;;;;8.25;100.00;100703.47;4996030;28;45832;-70
2022/12/30 03:15:12;;;;;;;;;6.00;4.33;;;;;8.27;100.00;100695.91;4995385;28;45429;-70
2022/12/30 03:17:40;;;;;;;;;6.00;6.00;;;;;8.28;100.00;100686.69;4999418;28;45509;-70
2022/12/30 03:20:10;;;;;;;;;5.67;5.33;;;;;8.36;100.00;100682.13;4994126;28;45668;-71
2022/12/30 03:28:12;;;;;;;;;7.33;4.67;;;;;8.45;100.00;100673.63;4992525;28;45466;-70
2022/12/30 03:30:54;;;;;;;;;5.00;4.33;;;;;8.51;100.00;100674.72;4999448;28;45376;-70
2022/12/30 03:33:20;;;;;;;;;6.33;5.67;;;;;8.54;100.00;100678.97;4995314;28;45748;-71
2022/12/30 03:35:54;;;;;;;;;6.33;6.33;;;;;8.60;100.00;100676.25;5008701;28;45319;-71
2022/12/30 03:38:24;;;;;;;;;4.00;4.00;;;;;8.70;100.00;100680.53;4992097;28;45434;-70
2022/12/30 03:40:55;;;;;;;;;5.00;5.00;;;;;8.76;100.00;100679.78;4997720;28;45391;-72
2022/12/30 03:43:20;;;;;;;;;2.33;2.33;;;;;8.81;100.00;100683.56;4976107;28;45320;-70
2022/12/30 03:45:46;;;;;;;;;4.67;3.67;;;;;8.86;100.00;100671.19;4998898;28;45367;-71
2022/12/30 03:48:11;;;;;;;;;5.33;5.00;;;;;8.90;100.00;100667.03;5000526;28;46645;-70
2022/12/30 03:50:36;;;;;;;;;6.67;4.33;;;;;8.94;100.00;100668.31;4997023;28;45255;-71
2022/12/30 03:53:02;;;;;;;;;6.00;4.00;;;;;8.98;100.00;100659.53;5011478;28;45453;-72
2022/12/30 03:55:28;;;;;;;;;7.00;7.00;;;;;9.04;100.00;100657.84;4993083;28;45546;-73
2022/12/30 03:57:53;;;;;;;;;7.67;5.67;;;;;9.08;100.00;100650.09;5001297;28;45542;-70
2022/12/30 04:00:22;;;;;;;;;6.33;5.00;;;;;9.14;100.00;100647.38;4998103;28;45324;-69
2022/12/30 04:02:47;;;;;;;;;8.33;7.33;;;;;9.18;100.00;100632.25;4995904;28;45696;-69
2022/12/30 04:05:13;;;;;;;;;8.00;7.00;;;;;9.20;100.00;100626.59;4997084;28;45869;-69
2022/12/30 04:07:39;;;;;;;;;8.67;7.33;;;;;9.19;100.00;100622.16;5003302;28;45387;-67
2022/12/30 04:10:05;;;;;;;;;5.00;3.67;;;;;9.21;100.00;100620.06;5004073;28;45440;-69
2022/12/30 04:12:30;;;;;;;;;5.00;5.00;;;;;9.20;100.00;100618.38;5009907;28;45807;-70
2022/12/30 04:14:56;;;;;;;;;6.00;1.33;;;;;9.17;100.00;100603.22;4983222;28;45702;-69
2022/12/30 04:17:21;;;;;;;;;5.00;5.00;;;;;9.14;100.00;100597.31;4997184;28;46507;-71
2022/12/30 04:19:47;;;;;;;;;6.00;5.00;;;;;9.12;100.00;100600.25;5001215;28;45666;-71
2022/12/30 04:22:12;;;;;;;;;7.33;7.33;;;;;9.09;100.00;100603.38;5003072;28;46390;-74
2022/12/30 04:24:38;;;;;;;;;6.67;5.00;;;;;9.05;100.00;100598.53;5025706;28;45907;-71
2022/12/30 04:27:03;;;;;;;;;7.00;4.67;;;;;9.01;100.00;100595.34;5006761;28;45508;-71
2022/12/30 04:29:28;;;;;;;;;8.00;5.00;;;;;9.00;100.00;100601.88;5003658;28;45434;-69
2022/12/30 04:31:54;;;;;;;;;7.00;6.00;;;;;8.98;100.00;100603.94;4987254;28;45480;-70
2022/12/30 04:34:19;;;;;;;;;7.67;6.67;;;;;8.97;100.00;100597.66;4998551;28;45442;-70
2022/12/30 04:36:45;;;;;;;;;6.33;5.00;;;;;8.97;100.00;100603.13;4984898;28;46611;-70
2022/12/30 04:39:10;;;;;;;;;11.00;8.00;;;;;8.98;100.00;100609.41;4982507;28;45738;-70
2022/12/30 04:41:35;;;;;;;;;8.00;6.00;;;;;8.99;100.00;100603.75;4997728;28;45848;-71
2022/12/30 04:44:02;;;;;;;;;5.33;3.00;;;;;8.92;100.00;100591.94;5003851;28;45779;-70
2022/12/30 04:46:28;;;;;;;;;11.00;6.67;;;;;8.85;100.00;100585.59;5002788;28;46349;-70
2022/12/30 04:48:54;;;;;;;;;7.33;6.00;;;;;8.78;100.00;100587.44;4984422;28;45684;-70
2022/12/30 04:51:20;;;;;;;;;9.67;6.00;;;;;8.74;100.00;100586.13;5000097;28;45467;-73
2022/12/30 04:53:46;;;;;;;;;4.67;4.00;;;;;8.73;100.00;100595.41;5002514;28;45510;-70
2022/12/30 04:56:12;;;;;;;;;5.00;5.00;;;;;8.71;100.00;100586.53;5006799;28;45864;-71
2022/12/30 04:58:37;;;;;;;;;7.33;4.00;;;;;8.70;100.00;100563.84;5002516;28;45463;-71
2022/12/30 05:01:03;;;;;;;;;6.67;5.33;;;;;8.72;100.00;100571.84;4985470;28;45421;-70
2022/12/30 05:03:28;;;;;;;;;7.67;4.67;;;;;8.68;100.00;100548.69;4982389;28;45913;-71
2022/12/30 05:05:54;;;;;;;;;7.67;5.00;;;;;8.64;100.00;100554.53;5000657;28;45834;-71
2022/12/30 05:08:19;;;;;;;;;7.33;6.00;;;;;8.58;100.00;100554.53;4991608;28;45510;-72
2022/12/30 05:10:45;;;;;;;;;4.00;4.00;;;;;8.42;100.00;100539.22;4995495;28;45705;-72
2022/12/30 05:13:10;;;;;;;;;11.00;6.00;;;;;8.51;100.00;100543.53;5002649;28;45541;-72
2022/12/30 05:15:37;;;;;;;;;8.33;6.33;;;;;8.52;100.00;100536.16;4997651;28;46053;-70
2022/12/30 05:18:02;;;;;;;;;6.33;6.00;;;;;8.50;100.00;100525.44;5002094;28;45576;-71
2022/12/30 05:20:29;;;;;;;;;7.00;7.00;;;;;8.52;100.00;100506.97;5002936;28;45379;-72
2022/12/30 05:22:54;;;;;;;;;7.33;6.33;;;;;8.44;100.00;100512.56;4999165;28;45840;-72
2022/12/30 05:28:04;;;;;;;;;5.67;5.33;;;;;8.53;100.00;100513.25;4999193;28;45426;-71
2022/12/30 05:30:29;;;;;;;;;8.33;6.00;;;;;8.52;100.00;100506.09;4976830;28;45752;-70
2022/12/30 05:32:54;;;;;;;;;8.67;7.00;;;;;8.59;100.00;100524.25;4998824;28;46524;-70
2022/12/30 05:35:21;;;;;;;;;7.33;7.33;;;;;8.66;100.00;100511.44;4983219;28;45915;-73
2022/12/30 05:37:46;;;;;;;;;9.00;6.00;;;;;8.64;100.00;100505.34;5003911;28;45276;-71
2022/12/30 05:40:12;;;;;;;;;6.00;3.00;;;;;8.71;100.00;100493.59;5012851;28;45958;-71
2022/12/30 05:42:37;;;;;;;;;5.67;5.00;;;;;8.75;100.00;100486.69;5000934;28;45270;-71
2022/12/30 05:45:04;;;;;;;;;9.33;6.00;;;;;8.76;100.00;100482.91;5013874;28;45574;-70
2022/12/30 05:47:29;;;;;;;;;7.00;7.00;;;;;8.72;100.00;100484.34;5001124;28;45418;-71
2022/12/30 05:49:55;;;;;;;;;8.00;7.00;;;;;8.72;100.00;100459.75;4985450;28;45290;-72
2022/12/30 05:52:20;;;;;;;;;5.33;3.67;;;;;8.78;100.00;100467.13;4979849;28;45695;-71
2022/12/30 05:54:46;;;;;;;;;5.00;5.00;;;;;8.84;100.00;100460.84;5006426;28;46168;-70
2022/12/30 05:57:11;;;;;;;;;6.67;6.67;;;;;8.88;100.00;100456.66;5009498;28;45492;-71
2022/12/30 05:59:37;;;;;;;;;4.33;4.00;;;;;8.95;100.00;100452.06;5000713;28;45833;-70
2022/12/30 06:02:02;;;;;;;;;6.00;4.00;;;;;9.00;100.00;100444.06;4975815;28;46075;-71
2022/12/30 06:04:28;;;;;;;;;4.00;4.00;;;;;9.02;100.00;100431.00;5011556;28;45417;-71
2022/12/30 06:06:53;;;;;;;;;2.00;2.00;;;;;9.09;100.00;100438.41;5004475;28;45485;-71
2022/12/30 06:09:19;;;;;;;;;4.33;4.33;;;;;9.14;100.00;100427.69;5008854;28;45423;-72
2022/12/30 06:11:45;;;;;;;;;2.00;2.00;;;;;9.16;100.00;100431.03;5011742;28;45848;-70
2022/12/30 06:14:12;;;;;;;;;3.00;3.00;;;;;9.17;100.00;100406.22;4993990;28;47099;-72
2022/12/30 06:16:37;;;;;;;;;3.00;3.00;;;;;9.21;100.00;100411.25;4980856;28;45404;-71
2022/12/30 06:19:03;;;;;;;;;3.67;3.00;;;;;9.23;100.00;100400.97;4997607;28;45824;-72
2022/12/30 06:21:28;;;;;;;;;3.33;2.67;;;;;9.28;100.00;100398.44;4998377;28;45597;-70
2022/12/30 06:23:54;;;;;;;;;4.33;3.67;;;;;9.36;100.00;100387.31;4998157;28;45809;-75
2022/12/30 06:26:19;;;;;;;;;7.00;4.33;;;;;9.36;100.00;100388.13;5007618;28;45358;-74
2022/12/30 06:28:45;;;;;;;;;3.33;2.00;;;;;9.34;100.00;100379.31;4997949;28;45455;-72
2022/12/30 06:31:10;;;;;;;;;3.33;3.33;;;;;9.35;100.00;100372.75;5003114;28;45474;-72
2022/12/30 06:33:36;;;;;;;;;5.33;4.00;;;;;9.43;100.00;100370.88;5005686;28;47270;-72
2022/12/30 06:36:01;;;;;;;;;5.67;4.33;;;;;9.44;100.00;100350.66;4988857;28;45962;-72
2022/12/30 06:38:27;;;;;;;;;4.00;2.00;;;;;9.49;100.00;100348.13;4994301;28;45663;-71
2022/12/30 06:40:52;;;;;;;;;6.00;3.00;;;;;9.48;100.00;100332.78;4996901;28;45806;-70
2022/12/30 06:43:18;;;;;;;;;6.00;2.33;;;;;9.55;100.00;100341.84;4999882;28;45521;-73
2022/12/30 06:45:43;;;;;;;;;5.00;3.33;;;;;9.62;100.00;100331.69;4999472;28;45442;-72
2022/12/30 06:48:09;;;;;;;;;4.00;2.33;;;;;9.67;100.00;100317.34;5005047;28;45431;-73
2022/12/30 06:50:36;;;;;;;;;5.33;4.67;;;;;9.70;100.00;100312.31;5012221;28;45714;-69
2022/12/30 06:53:02;;;;;;;;;5.00;3.67;;;;;9.70;100.00;100312.31;5004477;28;45675;-74
2022/12/30 06:55:28;;;;;;;;;5.67;4.00;;;;;9.71;100.00;100297.56;5013374;28;45629;-72
2022/12/30 06:57:53;;;;;;;;;6.00;1.67;;;;;9.73;100.00;100319.25;5006947;28;45992;-70
2022/12/30 07:00:19;;;;;;;;;4.33;3.00;;;;;9.75;100.00;100317.16;5019389;28;45728;-71
2022/12/30 07:02:44;;;;;;;;;4.00;2.00;;;;;9.74;100.00;100298.19;5018282;28;46468;-72
2022/12/30 07:05:10;;;;;;;;;3.67;2.67;;;;;9.78;100.00;100291.22;4993440;28;45417;-71
2022/12/30 07:07:35;;;;;;;;;4.00;3.00;;;;;9.82;100.00;100287.00;5004799;28;45505;-72
2022/12/30 07:10:01;;;;;;;;;4.33;2.00;;;;;9.85;100.00;100292.03;4999626;28;45530;-72
2022/12/30 07:12:26;;;;;;;;;4.67;3.67;;;;;9.85;100.00;100279.19;5002746;28;46696;-71
2022/12/30 07:14:52;;;;;;;;;4.67;3.00;;;;;9.85;100.00;100279.19;5001010;28;45795;-71
2022/12/30 07:17:17;;;;;;;;;3.50;3.00;;;;;9.87;100.00;100268.03;5000745;28;45701;-71
2022/12/30 07:19:46;;;;;;;;;6.00;2.00;;;;;9.92;100.00;100246.28;5003429;28;45513;-70
2022/12/30 07:22:12;;;;;;;;;2.67;2.33;;;;;9.97;100.00;100249.25;5004867;28;46139;-71
2022/12/30 07:24:37;;;;;;;;;5.33;2.00;;;;;9.97;100.00;100235.53;4999480;28;45319;-72
2022/12/30 07:27:03;;;;;;;;;5.67;2.00;;;;;10.02;100.00;100229.41;4990259;28;45613;-72
2022/12/30 07:29:28;;;;;;;;;4.33;2.67;;;;;10.05;100.00;100228.97;5005083;28;45712;-72
2022/12/30 07:31:54;;;;;;;;;2.33;2.33;;;;;10.07;100.00;100246.00;5008296;28;45827;-70
2022/12/30 07:34:19;;;;;;;;;3.00;2.00;;;;;10.11;100.00;100235.47;5003105;28;45318;-72
2022/12/30 07:36:45;;;;;;;;;2.00;2.00;;;;;10.14;100.00;100218.59;5003722;28;45795;-71
2022/12/30 07:39:10;;;;;;;;;3.00;1.67;;;;;10.16;100.00;100208.25;5005353;28;45513;-72
2022/12/30 07:41:36;;;;;;;;;4.00;2.00;;;;;10.17;100.00;100218.16;5002214;28;46050;-72
2022/12/30 07:44:01;;;;;;;;;4.33;3.00;;;;;10.22;100.00;100204.63;5002412;28;45718;-73
2022/12/30 07:46:27;;;;;;;;;4.00;3.00;;;;;10.27;100.00;100224.00;5002158;28;45457;-72
2022/12/30 07:48:52;;;;;;;;;1.00;1.00;;;;;10.27;100.00;100210.31;5011229;28;45585;-72
2022/12/30 07:51:18;;;;;;;;;5.00;2.33;;;;;10.30;100.00;100218.09;5004827;28;46566;-72
2022/12/30 07:53:44;;;;;;;;;0.67;0.00;;;;;10.36;100.00;100221.84;5002870;28;46056;-74
2022/12/30 07:56:11;;;;;;;;;2.00;1.00;;;;;10.39;100.00;100215.97;4988976;28;45821;-71
2022/12/30 07:58:38;;;;;;;;;2.33;2.33;;;;;10.39;100.00;100211.31;5003687;28;45983;-70
2022/12/30 08:01:05;;;;;;;;;4.67;2.00;;;;;10.42;100.00;100218.25;5007163;28;45479;-71
2022/12/30 08:03:31;;;;;;;;;4.00;1.67;;;;;10.43;100.00;100211.69;5010646;28;45432;-70
2022/12/30 08:05:56;;;;;;;;;2.33;1.00;;;;;10.45;100.00;100195.03;5004667;28;45602;-71
2022/12/30 08:08:22;;;;;;;;;3.00;2.00;;;;;10.48;100.00;100213.78;4994435;28;45855;-72
2022/12/30 08:11:01;;;;;;;;;3.33;1.00;;;;;10.40;100.00;100193.81;4992726;28;46101;-71
2022/12/30 08:13:29;;;;;;;;;3.00;1.67;;;;;10.49;100.00;100188.03;5010129;28;45769;-72
2022/12/30 08:15:55;;;;;;;;;3.00;1.33;;;;;10.50;100.00;100173.28;5004075;28;45966;-73
2022/12/30 08:18:20;;;;;;;;;1.67;1.67;;;;;10.48;100.00;100168.03;5002114;28;45599;-71
2022/12/30 08:20:46;;;;;;;;;4.67;2.33;;;;;10.46;100.00;100167.38;5011945;28;45847;-72
2022/12/30 08:23:11;;;;;;;;;1.67;1.00;;;;;10.47;100.00;100173.72;5014667;28;45706;-71
2022/12/30 08:25:37;;;;;;;;;3.00;1.00;;;;;10.46;100.00;100169.28;4991433;28;45652;-75
2022/12/30 08:28:02;;;;;;;;;3.00;1.00;;;;;10.44;100.00;100157.72;4990567;28;46891;-74
2022/12/30 08:30:28;;;;;;;;;4.00;2.00;;;;;10.39;100.00;100178.41;5012083;28;45846;-72
2022/12/30 08:32:53;;;;;;;;;4.00;2.67;;;;;10.29;100.00;100150.63;5013110;28;45415;-71
2022/12/30 08:35:19;;;;;;;;;2.00;2.00;;;;;10.25;100.00;100161.19;4992511;28;45409;-73
2022/12/30 08:37:44;;;;;;;;;5.67;0.33;;;;;10.21;100.00;100149.00;4996520;28;45523;-73
2022/12/30 08:40:11;;;;;;;;;2.00;2.00;;;;;10.01;100.00;100127.19;5014422;28;45521;-73
2022/12/30 08:42:37;;;;;;;;;3.00;2.00;;;;;10.05;100.00;100133.09;5013149;28;45329;-76
2022/12/30 08:45:08;;;;;;;;;4.67;2.67;;;;;9.95;100.00;100119.03;5002150;28;44778;-73
2022/12/30 08:47:34;;;;;;;;;1.00;1.00;;;;;9.81;100.00;100132.78;4985379;28;46440;-75
2022/12/30 08:50:00;;;;;;;;;2.00;2.00;;;;;9.77;100.00;100119.75;5003186;28;45467;-77
2022/12/30 08:52:27;;;;;;;;;5.33;2.00;;;;;9.69;100.00;100123.59;5008141;28;45773;-78
2022/12/30 08:54:53;;;;;;;;;1.00;1.00;;;;;9.64;100.00;100106.97;5012095;28;45365;-77
2022/12/30 08:57:19;;;;;;;;;1.67;1.33;;;;;9.60;100.00;100097.53;5013253;28;45911;-75
2022/12/30 08:59:44;;;;;;;;;0.00;0.00;;;;;9.51;100.00;100103.25;4996534;28;45432;-73
2022/12/30 09:02:13;;;;;;;;;3.00;2.67;;;;;9.33;100.00;100068.38;4998377;28;45634;-75
2022/12/30 09:04:39;;;;;;;;;2.67;2.00;;;;;9.42;100.00;100098.25;5013446;28;45423;-74
2022/12/30 09:07:05;;;;;;;;;5.00;2.33;;;;;9.39;100.00;100091.31;5024577;28;45585;-77
2022/12/30 09:09:30;;;;;;;;;3.33;2.00;;;;;9.34;100.00;100078.28;5022785;28;45552;-78
2022/12/30 09:11:56;;;;;;;;;2.00;2.00;;;;;9.32;100.00;100072.16;5026695;28;45627;-78
2022/12/30 09:14:22;;;;;;;;;1.33;1.33;;;;;9.29;100.00;100058.94;5015065;28;45751;-80
2022/12/30 09:16:48;;;;;;;;;3.67;3.00;;;;;9.24;100.00;100052.44;5030673;28;45695;-76
2022/12/30 09:19:13;;;;;;;;;4.00;1.00;;;;;9.20;100.00;100054.75;5018736;28;45621;-78
2022/12/30 09:21:39;;;;;;;;;2.00;2.00;;;;;9.18;100.00;100046.78;4996640;28;45589;-78
2022/12/30 09:24:04;;;;;;;;;2.00;1.00;;;;;9.19;100.00;100045.72;5024929;28;45384;-77
2022/12/30 09:26:31;;;;;;;;;5.00;1.67;;;;;9.20;100.00;100038.34;5034752;28;45677;-79
2022/12/30 09:28:57;;;;;;;;;2.00;2.00;;;;;9.21;100.00;100031.81;5031614;28;45812;-77
2022/12/30 09:31:23;;;;;;;;;2.33;2.00;;;;;9.23;100.00;100016.03;5039429;28;45855;-77
2022/12/30 09:33:48;;;;;;;;;2.00;2.00;;;;;9.22;100.00;100013.50;5027751;28;45545;-77
2022/12/30 09:36:14;;;;;;;;;3.00;2.00;;;;;9.18;100.00;100013.13;5014807;28;46528;-76
2022/12/30 09:38:40;;;;;;;;;1.00;1.00;;;;;9.20;100.00;100038.34;4995917;28;48123;-75
2022/12/30 09:41:11;;;;;;;;;2.33;2.33;;;;;9.21;100.00;100061.06;5012513;28;45503;-76
2022/12/30 09:44:07;;;;;;;;;2.33;2.00;;;;;9.25;100.00;100033.06;5024564;28;45862;-75
2022/12/30 09:46:47;;;;;;;;;4.67;2.00;;;;;9.30;100.00;100010.53;5002059;28;45577;-76
2022/12/30 09:49:38;;;;;;;;;3.67;2.00;;;;;9.29;100.00;100009.66;5004816;28;48063;-76
2022/12/30 09:52:18;;;;;;;;;1.00;1.00;;;;;9.30;100.00;100016.84;4991539;28;45392;-77
2022/12/30 09:55:01;;;;;;;;;2.00;2.00;;;;;9.34;100.00;100009.88;5011957;28;45815;-77
2022/12/30 09:57:30;;;;;;;;;3.00;1.67;;;;;9.36;100.00;100004.19;5027029;28;45830;-77
2022/12/30 10:00:03;;;;;;;;;1.67;1.33;;;;;9.36;100.00;99963.13;5025194;28;46267;-78
2022/12/30 10:02:33;;;;;;;;;3.67;2.33;;;;;9.40;100.00;99952.56;5005069;28;46058;-79
2022/12/30 10:04:59;;;;;;;;;2.67;2.00;;;;;9.42;100.00;99942.25;5047429;28;45745;-78
2022/12/30 10:07:32;;;;;;;;;2.00;1.33;;;;;9.42;100.00;99959.50;5008714;28;45588;-75
2022/12/30 10:10:17;;;;;;;;;2.33;1.00;;;;;9.28;100.00;99922.34;5014883;28;45492;-79
2022/12/30 10:13:01;;;;;;;;;1.67;1.00;;;;;9.47;100.00;99929.56;5008185;28;45766;-78
2022/12/30 10:15:55;;;;;;;;;1.00;1.00;;;;;9.51;100.00;99899.88;5004962;28;45442;-79
2022/12/30 10:18:52;;;;;;;;;4.00;3.00;;;;;9.54;100.00;99919.41;5012303;28;45831;-79
2022/12/30 10:21:35;;;;;;;;;3.00;2.00;;;;;9.59;100.00;99898.75;4997898;28;46881;-77
2022/12/30 10:24:11;;;;;;;;;3.33;1.67;;;;;9.62;100.00;99888.19;5005555;28;45696;-78
2022/12/30 10:26:39;;;;;;;;;2.00;2.00;;;;;9.69;100.00;99902.66;5001474;28;45578;-75
2022/12/30 10:29:12;;;;;;;;;3.00;2.00;;;;;9.74;100.00;99903.88;4990170;28;45519;-76
2022/12/30 10:31:38;;;;;;;;;3.00;3.00;;;;;9.80;100.00;99886.56;5007109;28;45535;-77
2022/12/30 10:34:36;;;;;;;;;3.00;2.00;;;;;9.88;100.00;99889.03;5005493;28;45574;-75
2022/12/30 10:37:11;;;;;;;;;2.00;2.00;;;;;9.96;100.00;99905.16;4966011;28;46011;-76
2022/12/30 10:39:52;;;;;;;;;1.33;1.33;;;;;10.06;100.00;99893.69;5002496;28;45542;-74
2022/12/30 10:42:29;;;;;;;;;1.00;1.00;;;;;10.18;100.00;99885.53;5006380;28;46849;-77
2022/12/30 10:45:13;;;;;;;;;0.00;0.00;;;;;10.30;100.00;99859.06;5001815;28;45490;-79
2022/12/30 10:47:48;;;;;;;;;2.00;2.00;;;;;10.41;100.00;99866.53;5006757;28;45423;-76
2022/12/30 10:50:37;;;;;;;;;3.67;1.33;;;;;10.51;100.00;99848.69;5006510;28;46461;-76
2022/12/30 10:53:08;;;;;;;;;0.67;0.67;;;;;10.61;100.00;99829.78;5002194;28;45728;-73
2022/12/30 10:55:40;;;;;;;;;1.00;0.00;;;;;10.71;100.00;99856.69;4982099;28;46133;-73
2022/12/30 10:58:11;;;;;;;;;2.33;2.33;;;;;10.82;100.00;99786.47;5007821;28;45648;-76
2022/12/30 11:00:40;;;;;;;;;2.00;2.00;;;;;10.96;100.00;99837.34;5004683;28;45459;-74
2022/12/30 11:03:25;;;;;;;;;1.67;1.67;;;;;11.03;100.00;99838.06;5000720;28;45770;-75
2022/12/30 11:05:51;;;;;;;;;3.00;3.00;;;;;11.11;100.00;99802.06;4980698;28;45651;-73
2022/12/30 11:08:28;;;;;;;;;1.00;0.00;;;;;11.28;100.00;99798.63;5014874;28;45457;-74
2022/12/30 11:10:59;;;;;;;;;2.00;1.00;;;;;11.47;100.00;99775.47;5003311;28;47712;-71
2022/12/30 11:16:08;;;;;;;;;6.33;5.33;;;;;11.63;100.00;99792.28;5027184;28;45662;-74
2022/12/30 11:18:35;;;;;;;;;7.33;7.33;;;;;11.64;100.00;99824.19;5018470;28;45496;-75
2022/12/30 11:21:01;;;;;;;;;1.33;1.33;;;;;11.70;100.00;99823.22;5026444;28;45630;-74
2022/12/30 11:23:35;;;;;;;;;0.33;0.33;;;;;11.80;100.00;99785.00;5005495;28;47369;-75
2022/12/30 11:26:07;;;;;;;;;3.00;1.67;;;;;11.89;100.00;99781.91;5025255;28;45411;-75
2022/12/30 11:28:48;;;;;;;;;3.00;2.00;;;;;11.94;100.00;99791.09;5024330;28;45849;-74
2022/12/30 11:31:16;;;;;;;;;1.00;1.00;;;;;12.04;100.00;99795.16;5029130;28;45493;-74
2022/12/30 11:33:55;;;;;;;;;4.00;3.00;;;;;12.21;100.00;99765.00;5020359;28;46178;-77
2022/12/30 11:36:26;;;;;;;;;0.00;0.00;;;;;12.34;100.00;99756.47;5021345;28;45706;-76
2022/12/30 11:38:53;;;;;;;;;0.00;0.00;;;;;12.44;100.00;99759.41;5024378;28;45658;-78
2022/12/30 11:41:20;;;;;;;;;3.00;3.00;;;;;12.43;100.00;99785.25;5029638;28;45378;-74
2022/12/30 11:44:11;;;;;;;;;0.00;0.00;;;;;12.44;100.00;99753.91;5028543;28;45802;-75
2022/12/30 11:46:39;;;;;;;;;0.00;0.00;;;;;12.48;100.00;99746.81;5017159;28;45463;-75
2022/12/30 11:49:28;;;;;;;;;0.00;0.00;;;;;12.46;100.00;99764.66;5023735;28;45416;-74
2022/12/30 11:51:59;;;;;;;;;5.00;2.33;;;;;12.46;100.00;99750.91;5190960;23;45824;-72
2022/12/30 11:54:31;;;;;;;;;0.33;0.33;;;;;12.49;100.00;99759.50;4990894;28;46278;-72
2022/12/30 11:57:06;;;;;;;;;0.67;0.67;;;;;12.53;100.00;99755.19;4974781;28;45487;-75
2022/12/30 11:59:36;;;;;;;;;2.00;2.00;;;;;12.62;100.00;99743.78;4970277;28;45964;-71
2022/12/30 12:02:19;;;;;;;;;0.00;0.00;;;;;12.64;100.00;99753.44;4986762;28;45389;-73
2022/12/30 12:04:45;;;;;;;;;0.00;0.00;;;;;12.62;100.00;99744.63;4986605;28;47127;-72
2022/12/30 12:07:16;;;;;;;;;1.00;1.00;;;;;12.73;100.00;99753.06;4983434;28;45463;-72
2022/12/30 12:09:49;;;;;;;;;0.00;0.00;;;;;12.89;100.00;99728.31;4987753;28;45561;-74
2022/12/30 12:15:16;;;;;;;;;1.33;0.33;;;;;13.13;100.00;99744.66;4999128;23;46163;-73
2022/12/30 12:18:01;;;;;;;;;1.67;1.67;;;;;13.13;100.00;99743.81;4984424;28;45383;-74
2022/12/30 12:20:43;;;;;;;;;0.67;0.67;;;;;13.18;100.00;99739.22;5002175;28;45700;-73
2022/12/30 12:23:33;;;;;;;;;1.00;1.00;;;;;13.30;100.00;99727.31;5003024;28;45753;-74
2022/12/30 12:26:11;;;;;;;;;0.67;0.67;;;;;13.36;100.00;99734.59;4963084;28;48070;-73
2022/12/30 12:28:41;;;;;;;;;0.00;0.00;;;;;13.43;100.00;99718.72;4978280;28;45688;-74
2022/12/30 12:31:25;;;;;;;;;0.00;0.00;;;;;13.50;100.00;99733.16;4980451;28;45502;-72